Time;durP1;ratioP1;P1;durP2;ratioP2;P2;SDS_P1;SDS_P2;PMS_P1;PMS_P2;Temp;Humidity;BMP_temperature;BMP_pressure;BME280_temperature;BME280_humidity;BME280_pressure;Samples;Min_cycle;Max_cycle;Signal;HPM_P1;HPM_P2
2022/01/27 00:04:40;;;;;;;27.42;13.00;;;-0.90;99.90;;;;;;5058952;28;20039;-91
2022/01/27 00:07:05;;;;;;;25.55;12.38;;;-0.90;99.90;;;;;;5110070;28;20037;-91
2022/01/27 00:10:02;;;;;;;23.70;12.23;;;-0.90;99.90;;;;;;5092367;28;20402;-91
2022/01/27 00:12:28;;;;;;;25.25;12.90;;;-0.90;99.90;;;;;;5088652;28;20114;-91
2022/01/27 00:15:07;;;;;;;29.08;14.07;;;-0.90;99.90;;;;;;5107455;28;20119;-91
2022/01/27 00:17:38;;;;;;;27.33;11.63;;;-0.90;99.90;;;;;;5085608;28;20027;-91
2022/01/27 00:20:04;;;;;;;25.50;12.02;;;-0.90;99.90;;;;;;5094324;28;20028;-91
2022/01/27 00:25:06;;;;;;;25.88;12.35;;;-0.90;99.90;;;;;;5082441;28;20514;-69
2022/01/27 00:27:32;;;;;;;23.75;11.73;;;-0.80;99.90;;;;;;5067853;28;20024;-69
2022/01/27 00:30:00;;;;;;;25.38;12.02;;;-0.90;99.90;;;;;;5070640;28;20048;-69
2022/01/27 00:32:25;;;;;;;26.98;12.32;;;-0.90;99.90;;;;;;5068461;28;20032;-69
2022/01/27 00:34:53;;;;;;;23.00;11.10;;;-0.90;99.90;;;;;;5065244;28;20057;-69
2022/01/27 00:37:18;;;;;;;24.05;11.43;;;-0.90;99.90;;;;;;5069492;28;20120;-69
2022/01/27 00:39:44;;;;;;;23.63;11.02;;;-0.90;99.90;;;;;;5066160;28;20040;-69
2022/01/27 00:42:09;;;;;;;22.08;10.75;;;-0.90;99.90;;;;;;5059508;28;20115;-69
2022/01/27 00:44:35;;;;;;;19.23;9.63;;;-0.90;99.90;;;;;;5060900;28;20024;-68
2022/01/27 00:47:01;;;;;;;27.45;11.75;;;-0.90;99.90;;;;;;5065326;28;20031;-69
2022/01/27 00:49:26;;;;;;;24.23;10.80;;;-0.90;99.90;;;;;;5067707;28;20028;-69
2022/01/27 00:51:52;;;;;;;25.15;11.80;;;-1.00;99.90;;;;;;5060847;28;20032;-69
2022/01/27 00:54:22;;;;;;;23.48;10.65;;;-1.00;99.90;;;;;;5065837;28;20533;-69
2022/01/27 00:56:54;;;;;;;24.98;11.35;;;-1.00;99.90;;;;;;5069100;28;20030;-71
2022/01/27 01:04:31;;;;;;;22.17;10.25;;;-1.00;99.90;;;;;;5090346;28;20069;-69
2022/01/27 01:06:58;;;;;;;23.98;10.90;;;-1.00;99.90;;;;;;5073126;28;20040;-69
2022/01/27 01:12:40;;;;;;;24.08;11.55;;;-1.00;99.90;;;;;;5091611;28;20033;-69
2022/01/27 01:30:33;;;;;;;27.35;12.68;;;-1.00;99.90;;;;;;5081598;28;20047;-69
2022/01/27 01:32:59;;;;;;;23.67;11.57;;;-1.00;99.90;;;;;;5072547;28;20036;-69
2022/01/27 01:35:35;;;;;;;28.50;12.05;;;-1.00;99.90;;;;;;5070502;28;20043;-69
2022/01/27 01:38:01;;;;;;;26.20;12.60;;;-1.00;99.90;;;;;;5071313;28;20048;-69
2022/01/27 01:40:26;;;;;;;30.95;12.60;;;-0.90;99.90;;;;;;5073024;28;20212;-69
2022/01/27 01:42:52;;;;;;;23.30;11.57;;;-1.00;99.90;;;;;;5064072;28;20031;-69
2022/01/27 01:45:19;;;;;;;28.30;12.13;;;-1.00;99.90;;;;;;5064319;28;20448;-69
2022/01/27 01:47:46;;;;;;;26.90;12.68;;;-1.00;99.90;;;;;;5069105;28;20116;-69
2022/01/27 01:50:13;;;;;;;26.67;12.25;;;-1.00;99.90;;;;;;5065553;28;20024;-69
2022/01/27 01:52:39;;;;;;;30.65;13.45;;;-1.00;99.90;;;;;;5066510;28;20024;-69
2022/01/27 01:55:07;;;;;;;27.92;13.50;;;-0.90;99.90;;;;;;5071673;28;20028;-69
2022/01/27 01:57:34;;;;;;;29.65;13.10;;;-1.00;99.90;;;;;;5073297;28;20034;-69
2022/01/27 02:00:00;;;;;;;32.13;14.68;;;-1.00;99.90;;;;;;5070764;28;20032;-69
2022/01/27 02:02:25;;;;;;;27.38;12.90;;;-1.00;99.90;;;;;;5070328;28;20085;-69
2022/01/27 02:04:54;;;;;;;27.13;12.98;;;-1.00;99.90;;;;;;5069884;28;20506;-69
2022/01/27 02:07:33;;;;;;;31.52;13.75;;;-1.00;99.90;;;;;;5070071;28;20028;-69
2022/01/27 02:18:13;;;;;;;29.13;12.38;;;-0.90;99.90;;;;;;5084343;28;20066;-69
2022/01/27 02:20:40;;;;;;;29.35;11.88;;;-0.90;99.90;;;;;;5069401;28;20040;-69
2022/01/27 02:23:08;;;;;;;29.42;13.00;;;-0.90;99.90;;;;;;5063875;28;20036;-69
2022/01/27 02:25:34;;;;;;;26.65;11.07;;;-0.90;99.90;;;;;;5066823;28;20083;-69
2022/01/27 02:28:00;;;;;;;26.20;11.93;;;-0.90;99.90;;;;;;5066963;28;20036;-70
2022/01/27 02:30:26;;;;;;;27.50;11.90;;;-0.90;99.90;;;;;;5076688;28;20028;-69
2022/01/27 02:32:53;;;;;;;29.35;12.85;;;-0.90;99.90;;;;;;5071052;28;20020;-70
2022/01/27 02:35:26;;;;;;;27.23;12.68;;;-0.90;99.90;;;;;;5070722;28;20115;-69
2022/01/27 02:37:52;;;;;;;25.55;11.30;;;-1.00;99.90;;;;;;5068459;28;20031;-69
2022/01/27 02:40:25;;;;;;;26.13;11.55;;;-1.00;99.90;;;;;;5069722;28;20499;-69
2022/01/27 02:42:52;;;;;;;29.05;11.68;;;-1.00;99.90;;;;;;5066640;28;20031;-69
2022/01/27 02:45:34;;;;;;;26.90;12.48;;;-1.00;99.90;;;;;;5071689;28;20024;-69
2022/01/27 02:48:00;;;;;;;30.55;12.38;;;-1.00;99.90;;;;;;5067768;28;20119;-69
2022/01/27 02:50:25;;;;;;;25.85;11.63;;;-1.00;99.90;;;;;;5078813;28;20215;-69
2022/01/27 02:52:51;;;;;;;28.98;12.30;;;-1.00;99.90;;;;;;5070591;28;20035;-69
2022/01/27 02:55:16;;;;;;;28.27;13.30;;;-1.00;99.90;;;;;;5071551;28;20031;-69
2022/01/27 02:57:42;;;;;;;31.67;12.75;;;-1.00;99.90;;;;;;5070756;28;20032;-70
2022/01/27 03:00:08;;;;;;;27.40;12.68;;;-1.00;99.90;;;;;;5072342;28;20092;-69
2022/01/27 03:02:35;;;;;;;27.67;12.15;;;-1.10;99.90;;;;;;5070504;28;20039;-69
2022/01/27 03:05:01;;;;;;;31.23;12.30;;;-1.10;99.90;;;;;;5067553;28;20495;-69
2022/01/27 03:07:27;;;;;;;31.58;13.35;;;-1.10;99.90;;;;;;5069137;28;20028;-69
2022/01/27 03:09:54;;;;;;;27.52;12.20;;;-1.10;99.90;;;;;;5069788;28;20028;-69
2022/01/27 03:12:23;;;;;;;27.05;11.43;;;-1.10;99.90;;;;;;5070255;28;20024;-69
2022/01/27 03:14:49;;;;;;;28.67;11.68;;;-1.10;99.90;;;;;;5071295;28;20168;-69
2022/01/27 03:17:16;;;;;;;28.42;12.68;;;-1.10;99.90;;;;;;5069232;28;20044;-69
2022/01/27 03:19:42;;;;;;;29.95;12.65;;;-1.10;99.90;;;;;;5064772;28;20524;-70
2022/01/27 03:22:09;;;;;;;29.30;13.27;;;-1.10;99.90;;;;;;5067374;28;20158;-69
2022/01/27 03:24:35;;;;;;;30.90;12.43;;;-1.00;99.90;;;;;;5069197;28;20127;-69
2022/01/27 03:27:02;;;;;;;32.83;13.27;;;-1.00;99.90;;;;;;5068742;28;20078;-69
2022/01/27 03:29:28;;;;;;;31.17;13.45;;;-1.00;99.90;;;;;;5065555;28;20063;-69
2022/01/27 03:31:54;;;;;;;28.85;12.63;;;-1.10;99.90;;;;;;5083869;28;20029;-70
2022/01/27 03:34:20;;;;;;;29.15;11.65;;;-1.10;99.90;;;;;;5068982;28;20028;-69
2022/01/27 03:36:46;;;;;;;28.63;13.25;;;-1.10;99.90;;;;;;5069555;28;20456;-69
2022/01/27 03:39:16;;;;;;;31.45;12.40;;;-1.10;99.90;;;;;;5070104;28;20032;-69
2022/01/27 03:41:49;;;;;;;29.17;12.07;;;-1.10;99.90;;;;;;5062781;28;20479;-69
2022/01/27 03:44:14;;;;;;;;;;;-1.10;99.90;;;;;;5063987;28;20111;-69
2022/01/27 03:46:40;;;;;;;32.67;12.23;;;-1.20;99.90;;;;;;5086235;28;20406;-69
2022/01/27 03:49:06;;;;;;;31.05;12.70;;;-1.20;99.90;;;;;;5066192;28;20050;-69
2022/01/27 03:51:31;;;;;;;25.65;12.40;;;-1.20;99.90;;;;;;5060230;28;20035;-69
2022/01/27 03:53:57;;;;;;;28.83;11.65;;;-1.20;99.90;;;;;;5071259;28;20030;-69
2022/01/27 03:56:22;;;;;;;32.40;12.90;;;-1.30;99.90;;;;;;5070262;28;20085;-70
2022/01/27 03:58:48;;;;;;;34.22;12.95;;;-1.30;99.90;;;;;;5068400;28;20020;-70
2022/01/27 04:01:14;;;;;;;36.65;12.85;;;-1.30;99.90;;;;;;5070284;28;20024;-68
2022/01/27 04:03:39;;;;;;;31.50;14.10;;;-1.20;99.90;;;;;;5061649;28;20033;-69
2022/01/27 04:06:07;;;;;;;34.92;14.43;;;-1.20;99.90;;;;;;5068559;28;20440;-69
2022/01/27 04:08:37;;;;;;;29.02;12.15;;;-1.20;99.90;;;;;;5068903;28;20063;-68
2022/01/27 04:11:09;;;;;;;35.58;13.80;;;-1.20;99.90;;;;;;5070403;28;20397;-69
2022/01/27 04:13:36;;;;;;;37.58;13.25;;;-1.20;99.90;;;;;;5066813;28;20028;-69
2022/01/27 04:16:02;;;;;;;34.15;13.60;;;-1.10;99.90;;;;;;5069341;28;20032;-69
2022/01/27 04:18:28;;;;;;;33.03;13.57;;;-1.10;99.90;;;;;;5086085;28;20028;-70
2022/01/27 04:20:54;;;;;;;33.47;12.70;;;-1.10;99.90;;;;;;5069827;28;20472;-69
2022/01/27 04:23:20;;;;;;;36.60;13.70;;;-1.10;99.90;;;;;;5071933;28;20034;-69
2022/01/27 04:25:46;;;;;;;34.47;13.85;;;-1.10;99.90;;;;;;5067986;28;20046;-69
2022/01/27 04:28:16;;;;;;;37.72;14.05;;;-1.00;99.90;;;;;;5071547;28;20032;-69
2022/01/27 04:30:41;;;;;;;31.73;13.15;;;-1.00;99.90;;;;;;5069267;28;20111;-69
2022/01/27 04:33:08;;;;;;;36.17;14.35;;;-1.00;99.90;;;;;;5070181;28;20453;-69
2022/01/27 04:35:38;;;;;;;31.75;12.85;;;-1.00;99.90;;;;;;5069859;28;20024;-70
2022/01/27 04:46:24;;;;;;;32.10;13.30;;;-1.00;99.90;;;;;;5080948;28;20043;-69
2022/01/27 04:48:45;;;;;;;38.65;13.70;;;-1.00;99.90;;;;;;5084162;28;20025;-69
2022/01/27 04:51:14;;;;;;;35.95;14.43;;;-1.00;99.90;;;;;;5071104;28;20027;-70
2022/01/27 04:54:27;;;;;;;32.97;14.35;;;-1.00;99.90;;;;;;5070241;28;20043;-69
2022/01/27 04:56:31;;;;;;;34.10;12.25;;;-1.00;99.90;;;;;;5078834;28;20376;-69
2022/01/27 04:59:02;;;;;;;36.03;14.23;;;-1.00;99.90;;;;;;5064334;28;20028;-69
2022/01/27 05:01:42;;;;;;;29.33;12.85;;;-1.00;99.90;;;;;;5068090;28;20086;-68
2022/01/27 05:04:14;;;;;;;33.05;14.23;;;-1.00;99.90;;;;;;5067664;28;20020;-69
2022/01/27 05:06:40;;;;;;;;;;;-1.00;99.90;;;;;;5068218;28;20035;-68
2022/01/27 05:09:06;;;;;;;33.17;13.80;;;-1.00;99.90;;;;;;5069755;28;19908;-69
2022/01/27 05:11:43;;;;;;;40.20;13.70;;;-1.00;99.90;;;;;;5069188;28;20130;-69
2022/01/27 05:16:34;;;;;;;39.10;13.85;;;-1.00;99.90;;;;;;5088807;28;20024;-68
2022/01/27 05:19:00;;;;;;;39.33;14.00;;;-1.00;99.90;;;;;;5069735;28;20031;-68
2022/01/27 05:21:26;;;;;;;35.35;13.52;;;-1.00;99.90;;;;;;5068060;28;20115;-69
2022/01/27 05:23:52;;;;;;;44.55;15.43;;;-1.00;99.90;;;;;;5069405;28;20020;-69
2022/01/27 05:26:17;;;;;;;41.28;15.35;;;-1.10;99.90;;;;;;5066480;28;20028;-69
2022/01/27 05:28:43;;;;;;;41.40;15.13;;;-1.10;99.90;;;;;;5067941;28;20039;-69
2022/01/27 05:31:09;;;;;;;38.97;14.50;;;-1.10;99.90;;;;;;5066362;28;20024;-69
2022/01/27 05:33:34;;;;;;;41.40;14.80;;;-1.10;99.90;;;;;;5070463;28;20113;-68
2022/01/27 05:36:00;;;;;;;38.97;15.10;;;-1.00;99.90;;;;;;5068935;28;20047;-69
2022/01/27 05:38:26;;;;;;;42.05;14.77;;;-1.00;99.90;;;;;;5065028;28;20102;-69
2022/01/27 05:40:52;;;;;;;43.50;16.38;;;-1.00;99.90;;;;;;5069174;28;20035;-69
2022/01/27 05:43:17;;;;;;;46.03;16.75;;;-1.00;99.90;;;;;;5069673;28;20390;-69
2022/01/27 05:45:44;;;;;;;48.53;16.30;;;-1.00;99.90;;;;;;5072008;28;20028;-68
2022/01/27 05:48:10;;;;;;;42.33;15.82;;;-1.00;99.90;;;;;;5073527;28;20107;-68
2022/01/27 05:50:36;;;;;;;47.55;17.02;;;-1.00;99.90;;;;;;5074184;28;20429;-68
2022/01/27 05:53:02;;;;;;;41.92;15.63;;;-1.00;99.90;;;;;;5074587;28;20027;-71
2022/01/27 05:55:27;;;;;;;44.40;15.70;;;-1.00;99.90;;;;;;5075134;28;20024;-68
2022/01/27 05:57:53;;;;;;;41.55;14.95;;;-1.00;99.90;;;;;;5073656;28;20173;-69
2022/01/27 06:00:19;;;;;;;46.28;14.85;;;-0.90;99.90;;;;;;5089600;28;20034;-67
2022/01/27 06:02:45;;;;;;;43.38;15.30;;;-0.90;99.90;;;;;;5069959;28;20095;-67
2022/01/27 06:05:12;;;;;;;46.78;16.48;;;-0.90;99.90;;;;;;5074707;28;20059;-68
2022/01/27 06:07:38;;;;;;;48.55;17.23;;;-1.00;99.90;;;;;;5090620;28;20028;-67
2022/01/27 06:10:04;;;;;;;48.45;17.80;;;-1.00;99.90;;;;;;5074794;28;20104;-69
2022/01/27 06:12:29;;;;;;;51.63;16.10;;;-1.00;99.90;;;;;;5074963;28;20028;-68
2022/01/27 06:14:55;;;;;;;49.92;17.52;;;-1.00;99.90;;;;;;5073915;28;20024;-69
2022/01/27 06:17:21;;;;;;;53.08;17.38;;;-1.00;99.90;;;;;;5067412;28;20016;-68
2022/01/27 06:19:47;;;;;;;48.85;17.17;;;-1.00;99.90;;;;;;5070502;28;20016;-68
2022/01/27 06:22:14;;;;;;;53.40;18.48;;;-1.00;99.90;;;;;;5071018;28;20048;-68
2022/01/27 06:24:44;;;;;;;50.35;16.92;;;-1.00;99.90;;;;;;5067985;28;20514;-66
2022/01/27 06:27:10;;;;;;;52.85;17.02;;;-0.90;99.90;;;;;;5061200;28;20028;-67
2022/01/27 06:32:05;;;;;;;54.08;17.50;;;-1.00;99.90;;;;;;5100241;28;20051;-70
2022/01/27 06:34:30;;;;;;;49.70;16.55;;;-1.00;99.90;;;;;;5077228;28;20506;-69
2022/01/27 06:36:57;;;;;;;46.67;15.35;;;-1.00;99.90;;;;;;5074620;28;20472;-70
2022/01/27 06:39:23;;;;;;;54.22;17.92;;;-1.00;99.90;;;;;;5074335;28;20475;-69
2022/01/27 06:41:48;;;;;;;52.03;17.15;;;-1.10;99.90;;;;;;5074493;28;20028;-70
2022/01/27 06:44:14;;;;;;;49.97;16.92;;;-1.10;99.90;;;;;;5075628;28;20406;-70
2022/01/27 06:46:40;;;;;;;50.80;17.05;;;-1.10;99.90;;;;;;5075353;28;20052;-70
2022/01/27 06:49:06;;;;;;;50.90;16.25;;;-1.10;99.90;;;;;;5074532;28;20046;-70
2022/01/27 06:51:32;;;;;;;49.80;15.88;;;-1.10;99.90;;;;;;5075325;28;20145;-69
2022/01/27 06:53:58;;;;;;;44.47;15.55;;;-1.10;99.90;;;;;;5074924;28;20024;-69
2022/01/27 06:56:25;;;;;;;47.97;16.20;;;-1.10;99.90;;;;;;5075019;28;20423;-70
2022/01/27 06:58:51;;;;;;;47.80;15.20;;;-1.10;99.90;;;;;;5074336;28;20399;-70
2022/01/27 07:01:17;;;;;;;46.80;14.63;;;-1.10;99.90;;;;;;5078634;28;20027;-69
2022/01/27 07:03:43;;;;;;;42.58;15.10;;;-1.10;99.90;;;;;;5086504;28;20467;-70
2022/01/27 07:06:09;;;;;;;52.03;16.65;;;-1.10;99.90;;;;;;5075445;28;20046;-70
2022/01/27 07:08:34;;;;;;;43.60;14.73;;;-1.10;99.90;;;;;;5074488;28;20488;-70
2022/01/27 07:11:00;;;;;;;50.35;16.27;;;-1.20;99.90;;;;;;5074212;28;20092;-68
2022/01/27 07:13:26;;;;;;;53.33;16.33;;;-1.20;99.90;;;;;;5075102;28;20020;-70
2022/01/27 07:15:51;;;;;;;48.85;16.42;;;-1.20;99.90;;;;;;5074545;28;20043;-70
2022/01/27 07:18:17;;;;;;;57.13;16.55;;;-1.30;99.90;;;;;;5073396;28;20069;-70
2022/01/27 07:20:43;;;;;;;60.60;16.98;;;-1.30;99.90;;;;;;5074616;28;20027;-70
2022/01/27 07:23:09;;;;;;;59.30;18.58;;;-1.30;99.90;;;;;;5074809;28;20023;-70
2022/01/27 07:25:36;;;;;;;53.08;17.02;;;-1.30;99.90;;;;;;5074402;28;20047;-69
2022/01/27 07:28:01;;;;;;;54.88;17.30;;;-1.30;99.90;;;;;;5080370;28;20034;-70
2022/01/27 07:30:27;;;;;;;60.20;18.70;;;-1.30;99.90;;;;;;5085314;28;20395;-69
2022/01/27 07:32:53;;;;;;;53.63;17.75;;;-1.30;99.90;;;;;;5073806;28;20032;-70
2022/01/27 07:35:18;;;;;;;54.35;17.92;;;-1.30;99.90;;;;;;5073526;28;20512;-69
2022/01/27 07:37:46;;;;;;;57.15;17.00;;;-1.30;99.90;;;;;;5072276;28;20020;-69
2022/01/27 07:40:12;;;;;;;55.00;18.70;;;-1.30;99.90;;;;;;5081319;28;20043;-69
2022/01/27 07:42:38;;;;;;;54.83;19.33;;;-1.30;99.90;;;;;;5074267;28;20028;-70
2022/01/27 07:45:05;;;;;;;57.60;17.95;;;-1.30;99.90;;;;;;5076747;28;20071;-69
2022/01/27 07:47:31;;;;;;;51.70;17.40;;;-1.30;99.90;;;;;;5083864;28;20028;-69
2022/01/27 07:49:57;;;;;;;55.85;18.50;;;-1.30;99.90;;;;;;5075326;28;20043;-69
2022/01/27 07:52:22;;;;;;;53.15;17.52;;;-1.40;99.90;;;;;;5074264;28;20472;-69
2022/01/27 07:54:48;;;;;;;51.30;16.65;;;-1.40;99.90;;;;;;5074070;28;20035;-69
2022/01/27 07:57:15;;;;;;;51.15;17.30;;;-1.40;99.90;;;;;;5072624;28;20380;-68
2022/01/27 07:59:41;;;;;;;47.28;16.17;;;-1.40;99.90;;;;;;5083477;28;20441;-69
2022/01/27 08:02:07;;;;;;;49.60;15.93;;;-1.50;99.90;;;;;;5073336;28;20024;-69
2022/01/27 08:04:33;;;;;;;48.72;15.60;;;-1.50;99.90;;;;;;5073786;28;20085;-68
2022/01/27 08:07:00;;;;;;;43.40;15.57;;;-1.50;99.90;;;;;;5072520;28;20114;-67
2022/01/27 08:09:26;;;;;;;43.05;14.75;;;-1.50;99.90;;;;;;5073285;28;20024;-68
2022/01/27 08:11:52;;;;;;;44.45;16.23;;;-1.50;99.90;;;;;;5073989;28;20492;-67
2022/01/27 08:14:17;;;;;;;47.28;15.65;;;-1.50;99.90;;;;;;5073151;28;20395;-68
2022/01/27 08:16:43;;;;;;;42.78;15.85;;;-1.50;99.90;;;;;;5076731;28;20041;-69
2022/01/27 08:19:09;;;;;;;46.60;17.42;;;-1.50;99.90;;;;;;5080715;28;20035;-68
2022/01/27 08:21:34;;;;;;;50.25;16.35;;;-1.50;99.90;;;;;;5081810;28;20031;-68
2022/01/27 08:24:00;;;;;;;44.28;16.77;;;-1.50;99.90;;;;;;5081625;28;20051;-68
2022/01/27 08:26:38;;;;;;;46.75;15.15;;;-1.50;99.90;;;;;;5075146;28;20119;-69
2022/01/27 08:29:20;;;;;;;40.75;15.75;;;-1.50;99.90;;;;;;5071132;28;20201;-69
2022/01/27 08:34:31;;;;;;;38.22;14.07;;;-1.50;99.90;;;;;;5091456;28;20025;-69
2022/01/27 08:36:59;;;;;;;41.33;14.93;;;-1.50;99.90;;;;;;5072262;28;20020;-66
2022/01/27 08:39:25;;;;;;;39.95;14.07;;;-1.50;99.90;;;;;;5062899;28;20025;-69
2022/01/27 08:41:51;;;;;;;33.47;12.18;;;-1.50;99.90;;;;;;5053258;28;20025;-68
2022/01/27 08:44:18;;;;;;;36.97;12.30;;;-1.50;99.90;;;;;;5053146;28;20384;-68
2022/01/27 08:46:43;;;;;;;29.17;11.60;;;-1.50;99.90;;;;;;5062590;28;20353;-68
2022/01/27 08:49:09;;;;;;;31.33;11.10;;;-1.40;99.90;;;;;;5067368;28;20074;-69
2022/01/27 08:51:36;;;;;;;21.70;9.63;;;-1.40;99.90;;;;;;5085726;28;20447;-68
2022/01/27 08:54:01;;;;;;;23.60;10.38;;;-1.40;99.90;;;;;;5076338;28;20059;-69
2022/01/27 08:56:27;;;;;;;30.38;11.55;;;-1.40;99.90;;;;;;5077012;28;20048;-69
2022/01/27 08:58:55;;;;;;;26.92;10.98;;;-1.40;99.90;;;;;;5097697;28;20059;-68
2022/01/27 09:01:23;;;;;;;25.15;10.02;;;-1.40;99.90;;;;;;5082432;28;20016;-68
2022/01/27 09:03:48;;;;;;;27.67;10.52;;;-1.40;99.90;;;;;;5071435;28;20032;-67
2022/01/27 09:06:14;;;;;;;24.25;10.00;;;-1.40;99.90;;;;;;5090490;28;20028;-70
2022/01/27 09:08:40;;;;;;;23.75;9.05;;;-1.40;99.90;;;;;;5086375;28;20480;-68
2022/01/27 09:11:06;;;;;;;26.77;9.85;;;-1.30;99.90;;;;;;5084053;28;20119;-68
2022/01/27 09:13:31;;;;;;;24.92;10.70;;;-1.30;99.90;;;;;;5085731;28;20114;-67
2022/01/27 09:16:00;;;;;;;23.00;9.55;;;-1.30;99.90;;;;;;5085423;28;21896;-68
2022/01/27 09:18:26;;;;;;;24.23;10.63;;;-1.30;99.90;;;;;;5086346;28;20028;-68
2022/01/27 09:20:51;;;;;;;20.92;7.93;;;-1.30;99.90;;;;;;5093513;28;20507;-67
2022/01/27 09:23:18;;;;;;;23.55;8.80;;;-1.30;99.90;;;;;;5077718;28;20043;-67
2022/01/27 09:25:47;;;;;;;21.00;8.60;;;-1.30;99.90;;;;;;5075710;28;20085;-68
2022/01/27 09:28:14;;;;;;;22.33;8.70;;;-1.30;99.90;;;;;;5084097;28;20546;-68
2022/01/27 09:30:41;;;;;;;23.13;8.82;;;-1.20;99.90;;;;;;5085144;28;20036;-68
2022/01/27 09:33:07;;;;;;;21.42;8.57;;;-1.20;99.90;;;;;;5091091;28;20028;-68
2022/01/27 09:35:33;;;;;;;22.23;8.60;;;-1.20;99.90;;;;;;5089870;28;20050;-69
2022/01/27 09:38:00;;;;;;;23.45;10.68;;;-1.20;99.90;;;;;;5076083;28;20028;-67
2022/01/27 09:40:27;;;;;;;23.48;8.55;;;-1.10;99.90;;;;;;5076577;28;20024;-67
2022/01/27 09:42:54;;;;;;;18.95;8.48;;;-1.10;99.90;;;;;;5095309;28;20024;-67
2022/01/27 09:45:21;;;;;;;20.67;9.27;;;-1.10;99.90;;;;;;5078330;28;20392;-67
2022/01/27 09:48:00;;;;;;;27.50;11.57;;;-1.20;99.90;;;;;;5075603;28;20027;-67
2022/01/27 09:50:47;;;;;;;24.73;9.27;;;-1.10;99.90;;;;;;5076400;28;20070;-68
2022/01/27 09:53:14;;;;;;;26.65;10.10;;;-1.10;99.90;;;;;;5076360;28;20392;-67
2022/01/27 09:55:40;;;;;;;23.48;10.25;;;-1.10;99.90;;;;;;5075890;28;20115;-67
2022/01/27 09:58:07;;;;;;;22.90;9.75;;;-1.10;99.90;;;;;;5075482;28;20540;-67
2022/01/27 10:00:34;;;;;;;23.85;8.85;;;-1.10;99.90;;;;;;5077483;28;20115;-67
2022/01/27 10:03:13;;;;;;;26.63;11.27;;;-1.10;99.90;;;;;;5082887;28;20074;-67
2022/01/27 10:05:41;;;;;;;23.48;9.65;;;-1.10;99.90;;;;;;5076380;28;20503;-67
2022/01/27 10:08:14;;;;;;;26.77;9.93;;;-1.10;99.90;;;;;;5075270;28;20059;-69
2022/01/27 10:10:42;;;;;;;29.00;11.15;;;-1.10;99.90;;;;;;5076068;28;20028;-69
2022/01/27 10:13:10;;;;;;;23.38;9.68;;;-1.10;99.90;;;;;;5076194;28;20027;-69
2022/01/27 10:15:39;;;;;;;29.20;10.93;;;-1.10;99.90;;;;;;5075399;28;20089;-69
2022/01/27 10:18:35;;;;;;;29.27;10.45;;;-1.10;99.90;;;;;;5075069;28;20024;-69
2022/01/27 10:21:06;;;;;;;28.83;10.98;;;-1.10;99.90;;;;;;5074308;28;20641;-69
2022/01/27 10:23:40;;;;;;;25.70;11.15;;;-1.10;99.90;;;;;;5075489;28;20039;-69
2022/01/27 10:26:15;;;;;;;32.85;11.80;;;-1.10;99.90;;;;;;5075429;28;20115;-69
2022/01/27 10:31:24;;;;;;;30.48;12.10;;;-1.00;99.90;;;;;;5102860;28;20130;-69
2022/01/27 10:34:17;;;;;;;30.67;12.20;;;-1.10;99.90;;;;;;5075644;28;20035;-68
2022/01/27 10:36:45;;;;;;;31.23;12.45;;;-1.00;99.90;;;;;;5072687;28;20123;-69
2022/01/27 10:39:14;;;;;;;37.85;13.73;;;-1.00;99.90;;;;;;5074502;28;20444;-69
2022/01/27 10:42:07;;;;;;;41.08;12.82;;;-0.90;99.90;;;;;;5075609;28;20119;-69
2022/01/27 10:44:37;;;;;;;40.63;14.48;;;-0.90;99.90;;;;;;5075072;28;20031;-69
2022/01/27 10:47:15;;;;;;;40.70;15.13;;;-0.90;99.90;;;;;;5074469;28;20054;-69
2022/01/27 10:49:53;;;;;;;34.42;13.52;;;-0.90;99.90;;;;;;5075374;28;20016;-69
2022/01/27 10:52:46;;;;;;;47.25;14.73;;;-0.90;99.90;;;;;;5074848;28;20093;-68
2022/01/27 10:55:19;;;;;;;35.42;13.75;;;-0.90;99.90;;;;;;5071924;28;20035;-69
2022/01/27 10:57:52;;;;;;;43.08;14.63;;;-0.90;99.90;;;;;;5073219;28;20499;-68
2022/01/27 11:00:24;;;;;;;47.65;15.25;;;-0.90;99.90;;;;;;5072453;28;20024;-68
2022/01/27 11:02:56;;;;;;;43.20;13.93;;;-0.90;99.90;;;;;;5087685;28;20058;-70
2022/01/27 11:05:26;;;;;;;;;;;-0.90;99.90;;;;;;5074804;28;20545;-69
2022/01/27 11:07:52;;;;;;;44.15;13.70;;;-0.80;99.90;;;;;;5073072;28;19951;-69
2022/01/27 11:10:19;;;;;;;43.53;15.50;;;-0.80;99.90;;;;;;5070392;28;20028;-69
2022/01/27 11:12:46;;;;;;;51.15;16.83;;;-0.80;99.90;;;;;;5071154;28;20048;-69
2022/01/27 11:15:16;;;;;;;51.35;15.25;;;-0.70;99.90;;;;;;5073778;28;20142;-66
2022/01/27 11:17:43;;;;;;;38.30;14.70;;;-0.70;99.90;;;;;;5072313;28;20646;-67
2022/01/27 11:20:36;;;;;;;42.88;15.23;;;-0.60;99.90;;;;;;5069660;28;20042;-68
2022/01/27 11:23:59;;;;;;;44.05;15.27;;;-0.60;99.90;;;;;;5068971;28;20492;-67
2022/01/27 11:25:58;;;;;;;41.10;14.95;;;-0.60;99.90;;;;;;5084979;28;20036;-68
2022/01/27 11:28:25;;;;;;;44.55;15.00;;;-0.50;99.90;;;;;;5067160;28;20107;-68
2022/01/27 11:31:18;;;;;;;35.80;14.13;;;-0.50;99.90;;;;;;5080545;28;20085;-69
2022/01/27 11:33:56;;;;;;;39.88;13.85;;;-0.40;99.90;;;;;;5086641;28;20506;-69
2022/01/27 11:36:24;;;;;;;40.28;13.90;;;-0.40;99.90;;;;;;5078297;28;20041;-69
2022/01/27 11:38:51;;;;;;;36.47;13.30;;;-0.40;99.90;;;;;;5081402;28;20089;-70
2022/01/27 11:41:43;;;;;;;37.00;13.38;;;-0.30;99.90;;;;;;5073931;28;20020;-69
2022/01/27 11:44:18;;;;;;;36.53;13.63;;;-0.30;99.90;;;;;;5072330;28;20416;-69
2022/01/27 11:47:14;;;;;;;39.83;15.18;;;-0.30;99.90;;;;;;5073471;28;20032;-70
2022/01/27 11:52:47;;;;;;;50.88;18.27;;;-0.20;99.90;;;;;;5092593;28;20545;-69
2022/01/27 11:55:24;;;;;;;37.58;14.07;;;-0.20;99.90;;;;;;5072752;28;20077;-69
2022/01/27 11:57:54;;;;;;;37.70;14.13;;;-0.10;99.90;;;;;;5074843;28;20020;-69
2022/01/27 12:00:22;;;;;;;39.80;15.13;;;-0.10;99.90;;;;;;5086206;28;20036;-69
2022/01/27 12:03:02;;;;;;;36.55;13.75;;;0.00;99.90;;;;;;5079374;28;20053;-69
2022/01/27 12:05:45;;;;;;;40.35;14.77;;;0.00;99.90;;;;;;5082296;28;20032;-69
2022/01/27 12:08:14;;;;;;;39.60;14.85;;;0.00;99.90;;;;;;5072844;28;20139;-69
2022/01/27 12:10:51;;;;;;;31.25;13.23;;;0.10;99.90;;;;;;5072978;28;20028;-69
2022/01/27 12:13:27;;;;;;;39.55;14.20;;;0.10;99.90;;;;;;5073868;28;20028;-69
2022/01/27 12:16:57;;;;;;;33.67;13.60;;;0.10;99.90;;;;;;5072938;28;20032;-69
2022/01/27 12:19:04;;;;;;;33.72;13.38;;;0.20;99.90;;;;;;5081295;28;20123;-69
2022/01/27 12:21:37;;;;;;;35.10;13.07;;;0.20;99.90;;;;;;5073833;28;20016;-68
2022/01/27 12:24:17;;;;;;;33.38;12.70;;;0.30;99.90;;;;;;5072719;28;20024;-69
2022/01/27 12:26:54;;;;;;;32.13;12.52;;;0.30;99.90;;;;;;5079679;28;20030;-69
2022/01/27 12:29:31;;;;;;;31.23;13.23;;;0.30;99.90;;;;;;5074459;28;20038;-68
2022/01/27 12:32:00;;;;;;;33.28;13.02;;;0.40;99.90;;;;;;5068803;28;20032;-68
2022/01/27 12:34:26;;;;;;;30.15;12.30;;;0.40;99.90;;;;;;5077372;28;20081;-69
2022/01/27 12:37:12;;;;;;;37.55;13.75;;;0.50;99.90;;;;;;5098069;22;20044;-73
2022/01/27 12:39:59;;;;;;;33.50;13.57;;;0.50;99.90;;;;;;5091827;28;20089;-72
2022/01/27 12:42:35;;;;;;;31.45;12.65;;;0.50;99.90;;;;;;5095684;28;20020;-72
2022/01/27 12:45:08;;;;;;;42.60;17.08;;;0.60;99.90;;;;;;5092683;28;20063;-71
2022/01/27 12:47:38;;;;;;;34.28;12.82;;;0.60;99.90;;;;;;5089664;28;20086;-73
2022/01/27 12:50:20;;;;;;;29.30;12.60;;;0.60;99.90;;;;;;5099902;28;20586;-73
2022/01/27 12:52:50;;;;;;;30.52;13.35;;;0.70;99.90;;;;;;5093006;28;20024;-72
2022/01/27 12:55:21;;;;;;;28.30;12.00;;;0.70;99.90;;;;;;5097916;28;20081;-71
2022/01/27 12:58:06;;;;;;;189.40;83.18;;;0.70;99.90;;;;;;5096265;28;20049;-73
2022/01/27 13:00:45;;;;;;;36.80;14.55;;;0.80;99.90;;;;;;5116314;28;20493;-71
2022/01/27 13:03:11;;;;;;;30.50;13.60;;;0.90;99.90;;;;;;5097211;28;20081;-72
2022/01/27 13:05:49;;;;;;;30.67;13.15;;;0.90;99.90;;;;;;5089921;28;20023;-73
2022/01/27 13:08:17;;;;;;;28.80;12.68;;;0.90;99.90;;;;;;5092560;28;20501;-72
2022/01/27 13:10:53;;;;;;;26.95;12.10;;;1.00;99.90;;;;;;5093450;27;20057;-73
2022/01/27 13:13:26;;;;;;;28.35;12.98;;;1.00;99.90;;;;;;5100580;28;20114;-71
2022/01/27 13:15:57;;;;;;;27.08;11.88;;;1.00;99.90;;;;;;5080408;28;20055;-70
2022/01/27 13:18:30;;;;;;;29.17;12.90;;;1.10;99.90;;;;;;5092836;28;20020;-72
2022/01/27 13:20:58;;;;;;;26.58;14.00;;;1.20;99.90;;;;;;5077022;28;20039;-72
2022/01/27 13:25:54;;;;;;;23.30;11.73;;;1.20;99.90;;;;;;5099496;28;20421;-71
2022/01/27 13:28:23;;;;;;;23.30;11.75;;;1.30;99.90;;;;;;5087236;28;20035;-70
2022/01/27 13:30:52;;;;;;;27.02;11.93;;;1.30;99.90;;;;;;5108514;27;20030;-71
2022/01/27 13:33:20;;;;;;;26.23;12.32;;;1.30;99.90;;;;;;5106437;28;20122;-71
2022/01/27 13:35:47;;;;;;;27.52;12.60;;;1.40;99.90;;;;;;5115260;28;20383;-71
2022/01/27 13:38:24;;;;;;;24.08;11.00;;;1.40;99.90;;;;;;5094634;28;20047;-72
2022/01/27 13:41:20;;;;;;;27.48;11.73;;;1.40;99.90;;;;;;5081173;28;20376;-71
2022/01/27 13:43:52;;;;;;;24.75;12.02;;;1.40;99.90;;;;;;5096504;28;20457;-71